createdAt,value
2022-09-17T00:01:23.012Z,99853.00
2022-09-17T00:03:55.751Z,99848.00
2022-09-17T00:06:24.552Z,99851.00
2022-09-17T00:08:51.636Z,99850.00
2022-09-17T00:11:24.888Z,99859.00
2022-09-17T00:13:52.740Z,99861.00
2022-09-17T00:16:32.491Z,99864.00
2022-09-17T00:19:00.506Z,99864.00
2022-09-17T00:21:27.905Z,99869.00
2022-09-17T00:23:56.858Z,99870.00
2022-09-17T00:26:24.107Z,99878.00
2022-09-17T00:28:55.653Z,99868.00
2022-09-17T00:31:23.332Z,99876.00
2022-09-17T00:33:50.355Z,99865.00
2022-09-17T00:36:18.133Z,99876.00
2022-09-17T00:38:44.905Z,99874.00
2022-09-17T00:41:11.666Z,99877.00
2022-09-17T00:43:58.734Z,99877.00
2022-09-17T00:46:35.326Z,99887.00
2022-09-17T00:49:11.085Z,99881.00
2022-09-17T00:51:41.634Z,99879.00
2022-09-17T00:54:10.167Z,99893.00
2022-09-17T00:56:39.531Z,99887.00
2022-09-17T00:59:06.660Z,99887.00
2022-09-17T01:01:33.850Z,99884.00
2022-09-17T01:04:00.712Z,99894.00
2022-09-17T01:06:33.331Z,99895.00
2022-09-17T01:09:00.058Z,99902.00
2022-09-17T01:11:50.844Z,99891.00
2022-09-17T01:14:20.636Z,99908.00
2022-09-17T01:16:50.441Z,99903.00
2022-09-17T01:19:38.638Z,99894.00
2022-09-17T01:22:21.309Z,99903.00
2022-09-17T01:25:10.072Z,99894.00
2022-09-17T01:28:07.821Z,99898.00
2022-09-17T01:30:44.210Z,99890.00
2022-09-17T01:33:21.408Z,99891.00
2022-09-17T01:36:29.176Z,99901.00
2022-09-17T01:39:07.599Z,99901.00
2022-09-17T01:41:42.025Z,99895.00
2022-09-17T01:44:35.678Z,99905.00
2022-09-17T01:47:21.158Z,99895.00
2022-09-17T01:49:50.879Z,99897.00
2022-09-17T01:52:19.074Z,99892.00
2022-09-17T01:54:53.384Z,99902.00
2022-09-17T01:57:34.641Z,99892.00
2022-09-17T02:00:05.493Z,99880.00
2022-09-17T02:02:35.743Z,99887.00
2022-09-17T02:05:03.967Z,99890.00
2022-09-17T02:07:32.022Z,99895.00
2022-09-17T02:10:03.908Z,99906.00
2022-09-17T02:12:35.139Z,99903.00
2022-09-17T02:15:05.937Z,99898.00
2022-09-17T02:17:37.908Z,99897.00
2022-09-17T02:20:05.513Z,99892.00
2022-09-17T02:22:41.683Z,99905.00
2022-09-17T02:25:36.645Z,99901.00
2022-09-17T02:28:09.490Z,99898.00
2022-09-17T02:30:36.621Z,99896.00
2022-09-17T02:33:04.800Z,99893.00
2022-09-17T02:35:32.257Z,99897.00
2022-09-17T02:38:00.420Z,99903.00
2022-09-17T02:40:29.463Z,99891.00
2022-09-17T02:43:06.585Z,99895.00
2022-09-17T02:45:41.236Z,99889.00
2022-09-17T02:48:40.970Z,99896.00
2022-09-17T02:51:16.787Z,99895.00
2022-09-17T02:53:49.908Z,99890.00
2022-09-17T02:56:19.412Z,99884.00
2022-09-17T02:58:57.501Z,99884.00
2022-09-17T03:01:32.853Z,99893.00
2022-09-17T03:04:01.082Z,99883.00
2022-09-17T03:06:27.890Z,99888.00
2022-09-17T03:08:54.601Z,99885.00
2022-09-17T03:11:21.696Z,99881.00
2022-09-17T03:13:48.716Z,99881.00
2022-09-17T03:16:15.542Z,99887.00
2022-09-17T03:18:43.014Z,99877.00
2022-09-17T03:21:10.526Z,99868.00
2022-09-17T03:23:37.516Z,99873.00
2022-09-17T03:26:04.306Z,99880.00
2022-09-17T03:28:31.081Z,99880.00
2022-09-17T03:30:57.894Z,99873.00
2022-09-17T03:33:24.769Z,99887.00
2022-09-17T03:35:51.545Z,99885.00
2022-09-17T03:38:18.323Z,99893.00
2022-09-17T03:40:45.324Z,99886.00
2022-09-17T03:43:12.144Z,99889.00
2022-09-17T03:45:38.878Z,99884.00
2022-09-17T03:48:05.736Z,99891.00
2022-09-17T03:50:32.801Z,99890.00
2022-09-17T03:52:59.608Z,99893.00
2022-09-17T03:55:26.405Z,99896.00
2022-09-17T03:57:53.162Z,99896.00
2022-09-17T04:00:20.035Z,99897.00
2022-09-17T04:02:46.853Z,99908.00
2022-09-17T04:05:13.776Z,99904.00
2022-09-17T04:07:41.275Z,99904.00
2022-09-17T04:10:08.628Z,99903.00
2022-09-17T04:12:35.605Z,99911.00
2022-09-17T04:15:02.527Z,99898.00
2022-09-17T04:17:29.264Z,99908.00
2022-09-17T04:19:56.067Z,99910.00
2022-09-17T04:22:22.899Z,99917.00
2022-09-17T04:24:49.678Z,99917.00
2022-09-17T04:27:16.846Z,99928.00
2022-09-17T04:29:43.577Z,99928.00
2022-09-17T04:32:10.464Z,99924.00
2022-09-17T04:34:37.229Z,99919.00
2022-09-17T04:37:03.984Z,99921.00
2022-09-17T04:39:30.773Z,99913.00
2022-09-17T04:41:57.544Z,99910.00
2022-09-17T04:44:24.312Z,99914.00
2022-09-17T04:46:51.541Z,99915.00
2022-09-17T04:49:18.379Z,99915.00
2022-09-17T04:51:45.150Z,99924.00
2022-09-17T04:54:12.042Z,99921.00
2022-09-17T04:56:38.785Z,99909.00
2022-09-17T04:59:05.669Z,99911.00
2022-09-17T05:01:32.473Z,99922.00
2022-09-17T05:03:59.267Z,99914.00
2022-09-17T05:06:26.046Z,99920.00
2022-09-17T05:08:52.783Z,99912.00
2022-09-17T05:11:19.591Z,99913.00
2022-09-17T05:13:46.334Z,99914.00
2022-09-17T05:16:13.184Z,99919.00
2022-09-17T05:18:40.042Z,99913.00
2022-09-17T05:21:07.060Z,99916.00
2022-09-17T05:23:34.860Z,99921.00
2022-09-17T05:26:02.870Z,99921.00
2022-09-17T05:28:29.732Z,99936.00
2022-09-17T05:30:59.933Z,99929.00
2022-09-17T05:33:26.932Z,99939.00
2022-09-17T05:35:53.744Z,99940.00
2022-09-17T05:38:20.521Z,99933.00
2022-09-17T05:40:49.147Z,99929.00
2022-09-17T05:43:16.140Z,99937.00
2022-09-17T05:45:43.045Z,99940.00
2022-09-17T05:48:12.700Z,99937.00
2022-09-17T05:50:39.559Z,99936.00
2022-09-17T05:53:09.027Z,99937.00
2022-09-17T05:55:35.772Z,99945.00
2022-09-17T05:58:12.308Z,99953.00
2022-09-17T06:00:39.812Z,99959.00
2022-09-17T06:03:07.148Z,99962.00
2022-09-17T06:05:33.981Z,99957.00
2022-09-17T06:08:00.943Z,99972.00
2022-09-17T06:10:27.796Z,99968.00
2022-09-17T06:12:59.539Z,99968.00
2022-09-17T06:15:28.010Z,99968.00
2022-09-17T06:17:54.920Z,99974.00
2022-09-17T06:20:21.833Z,99976.00
2022-09-17T06:22:48.594Z,99986.00
2022-09-17T06:25:15.328Z,99983.00
2022-09-17T06:27:42.267Z,99970.00
2022-09-17T06:30:09.622Z,99978.00
2022-09-17T06:32:36.544Z,99979.00
2022-09-17T06:35:03.318Z,99977.00
2022-09-17T06:37:31.396Z,99974.00
2022-09-17T06:39:59.366Z,99980.00
2022-09-17T06:42:26.770Z,99972.00
2022-09-17T06:44:53.911Z,99979.00
2022-09-17T06:47:21.088Z,99979.00
2022-09-17T06:49:47.888Z,99974.00
2022-09-17T06:52:14.669Z,99985.00
2022-09-17T06:54:41.514Z,99975.00
2022-09-17T06:57:08.312Z,99978.00
2022-09-17T06:59:35.148Z,99977.00
2022-09-17T07:02:03.226Z,99987.00
2022-09-17T07:04:30.044Z,99977.00
2022-09-17T07:06:56.800Z,99982.00
2022-09-17T07:09:23.675Z,99992.00
2022-09-17T07:11:50.502Z,99995.00
2022-09-17T07:14:19.130Z,100003.00
2022-09-17T07:16:45.990Z,100003.00
2022-09-17T07:19:14.841Z,99996.00
2022-09-17T07:21:42.139Z,99994.00
2022-09-17T07:24:09.051Z,100013.00
2022-09-17T07:26:35.812Z,100024.00
2022-09-17T07:29:02.558Z,100019.00
2022-09-17T07:31:29.373Z,100036.00
2022-09-17T07:33:56.220Z,100036.00
2022-09-17T07:36:22.952Z,100032.00
2022-09-17T07:38:49.759Z,100021.00
2022-09-17T07:41:17.855Z,100035.00
2022-09-17T07:43:44.967Z,100046.00
2022-09-17T07:46:17.135Z,100040.00
2022-09-17T07:48:44.171Z,100032.00
2022-09-17T07:51:22.163Z,100032.00
2022-09-17T07:53:53.352Z,100023.00
2022-09-17T07:56:20.532Z,100035.00
2022-09-17T07:58:47.627Z,100033.00
2022-09-17T08:01:18.418Z,100028.00
2022-09-17T08:03:50.491Z,100032.00
2022-09-17T08:06:20.968Z,100028.00
2022-09-17T08:08:48.481Z,100022.00
2022-09-17T08:11:32.382Z,100019.00
2022-09-17T08:14:04.724Z,100022.00
2022-09-17T08:16:31.733Z,100043.00
2022-09-17T08:18:58.638Z,100037.00
2022-09-17T08:21:25.516Z,100041.00
2022-09-17T08:24:01.001Z,100041.00
2022-09-17T08:26:27.935Z,100042.00
2022-09-17T08:28:56.481Z,100037.00
2022-09-17T08:31:25.266Z,100039.00
2022-09-17T08:33:52.562Z,100026.00
2022-09-17T08:36:19.847Z,100028.00
2022-09-17T08:38:57.586Z,100039.00
2022-09-17T08:41:58.981Z,100040.00
2022-09-17T08:44:33.919Z,100040.00
2022-09-17T08:47:11.640Z,100032.00
2022-09-17T08:50:00.498Z,100048.00
2022-09-17T08:52:41.349Z,100056.00
2022-09-17T08:55:36.354Z,100052.00
2022-09-17T08:58:23.507Z,100053.00
2022-09-17T09:01:03.585Z,100045.00
2022-09-17T09:03:59.657Z,100052.00
2022-09-17T09:06:29.890Z,100055.00
2022-09-17T09:09:03.641Z,100026.00
2022-09-17T09:11:31.255Z,100047.00
2022-09-17T09:14:10.181Z,100042.00
2022-09-17T09:16:42.530Z,100023.00
2022-09-17T09:19:30.213Z,100067.00
2022-09-17T09:22:30.676Z,100060.00
2022-09-17T09:25:23.617Z,100052.00
2022-09-17T09:28:35.894Z,100055.00
2022-09-17T09:31:20.366Z,100033.00
2022-09-17T09:33:49.887Z,100044.00
2022-09-17T09:36:21.855Z,100046.00
2022-09-17T09:39:01.959Z,100048.00
2022-09-17T09:41:44.898Z,100060.00
2022-09-17T09:44:13.796Z,100041.00
2022-09-17T09:46:55.452Z,100046.00
2022-09-17T09:49:46.438Z,100057.00
2022-09-17T09:52:34.462Z,100066.00
2022-09-17T09:55:28.645Z,100077.00
2022-09-17T09:58:32.902Z,100065.00
2022-09-17T10:00:59.908Z,100075.00
2022-09-17T10:03:43.923Z,100046.00
2022-09-17T10:06:11.488Z,100054.00
2022-09-17T10:08:40.740Z,100056.00
2022-09-17T10:11:22.617Z,100055.00
2022-09-17T10:13:50.025Z,100024.00
2022-09-17T10:16:18.281Z,100022.00
2022-09-17T10:18:46.067Z,99996.00
2022-09-17T10:21:30.295Z,99984.00
2022-09-17T10:23:57.467Z,99979.00
2022-09-17T10:26:32.211Z,99991.00
2022-09-17T10:29:00.733Z,99975.00
2022-09-17T10:31:27.853Z,99984.00
2022-09-17T10:34:01.021Z,99980.00
2022-09-17T10:36:45.381Z,99988.00
2022-09-17T10:39:38.045Z,99982.00
2022-09-17T10:42:11.905Z,99977.00
2022-09-17T10:44:39.164Z,99967.00
2022-09-17T10:47:22.066Z,99956.00
2022-09-17T10:50:26.820Z,99948.00
2022-09-17T10:52:56.035Z,99950.00
2022-09-17T10:55:50.254Z,99955.00
2022-09-17T10:59:07.218Z,99943.00
2022-09-17T11:02:21.674Z,99942.00
2022-09-17T11:05:20.837Z,99924.00
2022-09-17T11:08:21.540Z,99926.00
2022-09-17T11:11:00.620Z,99932.00
2022-09-17T11:13:37.000Z,99927.00
2022-09-17T11:16:32.206Z,99933.00
2022-09-17T11:19:36.494Z,99926.00
2022-09-17T11:22:30.752Z,99948.00
2022-09-17T11:25:20.844Z,99987.00
2022-09-17T11:28:20.959Z,100004.00
2022-09-17T11:31:14.600Z,100004.00
2022-09-17T11:33:45.343Z,100004.00
2022-09-17T11:36:15.828Z,99981.00
2022-09-17T11:38:47.439Z,99973.00
2022-09-17T11:41:35.955Z,99995.00
2022-09-17T11:44:12.190Z,100040.00
2022-09-17T11:47:00.365Z,100049.00
2022-09-17T11:49:36.266Z,100051.00
2022-09-17T11:52:11.899Z,100041.00
2022-09-17T11:55:00.117Z,100007.00
2022-09-17T11:57:34.143Z,100010.00
2022-09-17T12:00:15.535Z,99996.00
2022-09-17T12:03:14.966Z,99976.00
2022-09-17T12:05:51.370Z,99988.00
2022-09-17T12:09:00.218Z,99970.00
2022-09-17T12:11:33.491Z,99967.00
2022-09-17T12:14:31.034Z,99953.00
2022-09-17T12:17:00.376Z,99936.00
2022-09-17T12:19:34.227Z,99930.00
2022-09-17T12:22:07.326Z,99933.00
2022-09-17T12:24:34.152Z,99922.00
2022-09-17T12:27:21.244Z,99920.00
2022-09-17T12:30:23.190Z,99927.00
2022-09-17T12:33:20.597Z,99926.00
2022-09-17T12:36:17.626Z,99923.00
2022-09-17T12:39:00.659Z,99922.00
2022-09-17T12:42:08.391Z,99940.00
2022-09-17T12:44:54.771Z,99942.00
2022-09-17T12:47:27.515Z,99953.00
2022-09-17T12:50:06.373Z,99963.00
2022-09-17T12:52:42.191Z,99954.00
2022-09-17T12:55:35.835Z,99961.00
2022-09-17T12:58:33.882Z,99950.00
2022-09-17T13:01:13.366Z,99966.00
2022-09-17T13:04:01.446Z,99957.00
2022-09-17T13:06:44.907Z,99970.00
2022-09-17T13:09:30.511Z,99968.00
2022-09-17T13:11:57.204Z,99978.00
2022-09-17T13:14:33.104Z,100000.00
2022-09-17T13:17:19.339Z,100015.00
2022-09-17T13:19:59.530Z,100044.00
2022-09-17T13:22:29.341Z,100029.00
2022-09-17T13:25:08.486Z,100012.00
2022-09-17T13:27:38.270Z,100006.00
2022-09-17T13:30:07.529Z,100001.00
2022-09-17T13:32:48.351Z,100006.00
2022-09-17T13:35:23.176Z,99996.00
2022-09-17T13:37:53.091Z,99992.00
2022-09-17T13:40:22.629Z,99988.00
2022-09-17T13:42:55.480Z,99989.00
2022-09-17T13:45:23.603Z,99982.00
2022-09-17T13:48:16.550Z,99986.00
2022-09-17T13:50:44.516Z,99986.00
2022-09-17T13:53:14.429Z,99977.00
2022-09-17T13:55:45.342Z,99985.00
2022-09-17T13:58:33.427Z,99984.00
2022-09-17T14:01:14.667Z,99978.00
2022-09-17T14:03:41.980Z,99982.00
2022-09-17T14:06:08.750Z,99994.00
2022-09-17T14:08:45.031Z,99999.00
2022-09-17T14:11:28.211Z,100009.00
2022-09-17T14:13:55.248Z,100028.00
2022-09-17T14:16:37.636Z,100023.00
2022-09-17T14:19:17.992Z,100031.00
2022-09-17T14:22:22.435Z,100030.00
2022-09-17T14:24:54.280Z,100046.00
2022-09-17T14:28:05.721Z,100044.00
2022-09-17T14:30:34.137Z,100040.00
2022-09-17T14:33:00.850Z,100051.00
2022-09-17T14:35:33.392Z,100039.00
2022-09-17T14:38:09.473Z,100046.00
2022-09-17T14:40:36.525Z,100027.00
2022-09-17T14:43:03.488Z,100024.00
2022-09-17T14:45:37.144Z,100011.00
2022-09-17T14:48:28.724Z,99996.00
2022-09-17T14:51:20.005Z,100010.00
2022-09-17T14:53:48.526Z,100030.00
2022-09-17T14:56:21.208Z,100053.00
2022-09-17T14:58:51.172Z,100066.00
2022-09-17T15:01:29.093Z,100064.00
2022-09-17T15:04:14.401Z,100061.00
2022-09-17T15:06:42.018Z,100061.00
2022-09-17T15:09:25.823Z,100073.00
2022-09-17T15:11:58.498Z,100091.00
2022-09-17T15:14:34.536Z,100098.00
2022-09-17T15:17:02.808Z,100107.00
2022-09-17T15:19:40.957Z,100148.00
2022-09-17T15:22:36.116Z,100219.00
2022-09-17T15:25:07.458Z,100205.00
2022-09-17T15:27:37.059Z,100167.00
2022-09-17T15:30:14.272Z,100126.00
2022-09-17T15:32:44.226Z,100134.00
2022-09-17T15:35:14.278Z,100134.00
2022-09-17T15:37:55.846Z,100128.00
2022-09-17T15:40:41.694Z,100111.00
2022-09-17T15:43:31.558Z,100117.00
2022-09-17T15:46:14.816Z,100119.00
2022-09-17T15:48:41.603Z,100112.00
2022-09-17T15:51:23.510Z,100112.00
2022-09-17T15:53:52.572Z,100104.00
2022-09-17T15:56:22.264Z,100105.00
2022-09-17T15:58:48.923Z,100103.00
2022-09-17T16:01:15.678Z,100121.00
2022-09-17T16:03:45.376Z,100113.00
2022-09-17T16:06:18.284Z,100119.00
2022-09-17T16:08:49.408Z,100115.00
2022-09-17T16:11:17.085Z,100120.00
2022-09-17T16:13:46.215Z,100121.00
2022-09-17T16:16:17.431Z,100117.00
2022-09-17T16:18:44.375Z,100106.00
2022-09-17T16:21:15.243Z,100111.00
2022-09-17T16:23:42.146Z,100107.00
2022-09-17T16:26:31.399Z,100114.00
2022-09-17T16:29:05.579Z,100127.00
2022-09-17T16:31:33.226Z,100116.00
2022-09-17T16:34:00.660Z,100115.00
2022-09-17T16:36:30.901Z,100106.00
2022-09-17T16:38:58.531Z,100104.00
2022-09-17T16:41:25.326Z,100108.00
2022-09-17T16:43:52.097Z,100111.00
2022-09-17T16:46:18.892Z,100109.00
2022-09-17T16:48:49.277Z,100111.00
2022-09-17T16:51:16.311Z,100113.00
2022-09-17T16:53:43.494Z,100109.00
2022-09-17T16:56:14.882Z,100111.00
2022-09-17T16:59:18.718Z,100116.00
2022-09-17T17:01:49.928Z,100108.00
2022-09-17T17:04:17.612Z,100111.00
2022-09-17T17:06:44.550Z,100104.00
2022-09-17T17:09:12.310Z,100109.00
2022-09-17T17:11:39.341Z,100108.00
2022-09-17T17:14:06.554Z,100106.00
2022-09-17T17:16:33.366Z,100103.00
2022-09-17T17:19:00.255Z,100113.00
2022-09-17T17:21:27.255Z,100121.00
2022-09-17T17:23:54.010Z,100110.00
2022-09-17T17:26:20.799Z,100125.00
2022-09-17T17:28:52.915Z,100113.00
2022-09-17T17:31:19.940Z,100119.00
2022-09-17T17:33:46.681Z,100131.00
2022-09-17T17:36:14.711Z,100121.00
2022-09-17T17:38:43.936Z,100120.00
2022-09-17T17:41:13.311Z,100124.00
2022-09-17T17:43:41.040Z,100142.00
2022-09-17T17:46:10.382Z,100130.00
2022-09-17T17:48:38.405Z,100134.00
2022-09-17T17:51:11.138Z,100136.00
2022-09-17T17:53:41.641Z,100139.00
2022-09-17T17:56:10.045Z,100151.00
2022-09-17T17:58:39.163Z,100147.00
2022-09-17T18:01:38.225Z,100162.00
2022-09-17T18:04:10.315Z,100170.00
2022-09-17T18:06:37.750Z,100166.00
2022-09-17T18:09:06.387Z,100172.00
2022-09-17T18:11:35.174Z,100164.00
2022-09-17T18:14:02.461Z,100168.00
2022-09-17T18:16:30.657Z,100170.00
2022-09-17T18:18:58.593Z,100183.00
2022-09-17T18:21:31.115Z,100183.00
2022-09-17T18:23:58.041Z,100183.00
2022-09-17T18:26:28.864Z,100185.00
2022-09-17T18:29:40.145Z,100185.00
2022-09-17T18:32:22.736Z,100172.00
2022-09-17T18:34:51.717Z,100176.00
2022-09-17T18:37:18.815Z,100180.00
2022-09-17T18:39:58.145Z,100185.00
2022-09-17T18:42:28.390Z,100187.00
2022-09-17T18:44:58.704Z,100188.00
2022-09-17T18:47:25.633Z,100184.00
2022-09-17T18:49:55.490Z,100180.00
2022-09-17T18:52:22.613Z,100194.00
2022-09-17T18:54:50.826Z,100199.00
2022-09-17T18:57:17.603Z,100200.00
2022-09-17T18:59:44.402Z,100192.00
2022-09-17T19:02:12.811Z,100197.00
2022-09-17T19:04:39.656Z,100207.00
2022-09-17T19:07:06.848Z,100198.00
2022-09-17T19:09:33.724Z,100204.00
2022-09-17T19:12:00.516Z,100195.00
2022-09-17T19:14:27.303Z,100209.00
2022-09-17T19:16:55.207Z,100191.00
2022-09-17T19:19:22.432Z,100197.00
2022-09-17T19:21:51.843Z,100198.00
2022-09-17T19:24:18.666Z,100192.00
2022-09-17T19:26:50.646Z,100200.00
2022-09-17T19:29:17.931Z,100205.00
2022-09-17T19:31:44.881Z,100204.00
2022-09-17T19:34:12.041Z,100207.00
2022-09-17T19:36:38.821Z,100204.00
2022-09-17T19:39:05.682Z,100198.00
2022-09-17T19:41:33.406Z,100210.00
2022-09-17T19:44:00.227Z,100203.00
2022-09-17T19:46:27.152Z,100215.00
2022-09-17T19:48:58.507Z,100216.00
2022-09-17T19:51:26.645Z,100213.00
2022-09-17T19:53:53.781Z,100221.00
2022-09-17T19:56:24.323Z,100219.00
2022-09-17T19:58:52.011Z,100217.00
2022-09-17T20:01:19.100Z,100221.00
2022-09-17T20:03:46.692Z,100226.00
2022-09-17T20:06:16.855Z,100213.00
2022-09-17T20:08:51.541Z,100221.00
2022-09-17T20:11:19.685Z,100224.00
2022-09-17T20:13:46.591Z,100218.00
2022-09-17T20:16:16.861Z,100229.00
2022-09-17T20:18:44.123Z,100228.00
2022-09-17T20:21:12.873Z,100221.00
2022-09-17T20:23:40.030Z,100223.00
2022-09-17T20:26:07.105Z,100216.00
2022-09-17T20:28:34.328Z,100229.00
2022-09-17T20:31:02.671Z,100222.00
2022-09-17T20:33:29.843Z,100218.00
2022-09-17T20:36:08.473Z,100221.00
2022-09-17T20:41:22.338Z,100220.00
2022-09-17T20:43:53.375Z,100218.00
2022-09-17T20:46:27.567Z,100214.00
2022-09-17T20:48:57.524Z,100219.00
2022-09-17T20:51:29.365Z,100213.00
2022-09-17T20:53:57.235Z,100224.00
2022-09-17T20:56:30.278Z,100221.00
2022-09-17T20:59:13.204Z,100224.00
2022-09-17T21:01:45.331Z,100233.00
2022-09-17T21:04:14.863Z,100235.00
2022-09-17T21:06:42.769Z,100231.00
2022-09-17T21:09:12.146Z,100241.00
2022-09-17T21:11:39.020Z,100233.00
2022-09-17T21:14:05.866Z,100240.00
2022-09-17T21:16:32.858Z,100225.00
2022-09-17T21:19:03.572Z,100234.00
2022-09-17T21:21:30.479Z,100232.00
2022-09-17T21:24:01.801Z,100237.00
2022-09-17T21:26:28.841Z,100245.00
2022-09-17T21:28:56.570Z,100248.00
2022-09-17T21:31:33.085Z,100244.00
2022-09-17T21:34:02.692Z,100243.00
2022-09-17T21:36:31.739Z,100250.00
2022-09-17T21:39:00.629Z,100250.00
2022-09-17T21:41:28.085Z,100256.00
2022-09-17T21:43:54.940Z,100258.00
2022-09-17T21:46:24.225Z,100250.00
2022-09-17T21:48:53.139Z,100245.00
2022-09-17T21:51:22.239Z,100242.00
2022-09-17T21:53:53.399Z,100245.00
2022-09-17T21:56:21.212Z,100252.00
2022-09-17T21:58:55.371Z,100237.00
2022-09-17T22:01:25.262Z,100239.00
2022-09-17T22:03:52.568Z,100251.00
2022-09-17T22:06:22.632Z,100231.00
2022-09-17T22:08:50.016Z,100235.00
2022-09-17T22:11:30.960Z,100231.00
2022-09-17T22:14:04.665Z,100231.00
2022-09-17T22:16:33.391Z,100233.00
2022-09-17T22:19:02.551Z,100220.00
2022-09-17T22:21:31.283Z,100221.00
2022-09-17T22:24:00.964Z,100230.00
2022-09-17T22:26:31.810Z,100237.00
2022-09-17T22:29:10.636Z,100224.00
2022-09-17T22:31:37.500Z,100233.00
2022-09-17T22:34:10.466Z,100235.00
2022-09-17T22:36:37.677Z,100236.00
2022-09-17T22:39:05.450Z,100232.00
2022-09-17T22:41:34.464Z,100234.00
2022-09-17T22:44:03.958Z,100231.00
2022-09-17T22:46:32.674Z,100231.00
2022-09-17T22:48:59.849Z,100224.00
2022-09-17T22:51:27.715Z,100233.00
2022-09-17T22:53:54.710Z,100226.00
2022-09-17T22:56:25.959Z,100225.00
2022-09-17T22:58:52.953Z,100225.00
2022-09-17T23:01:22.540Z,100229.00
2022-09-17T23:03:51.512Z,100223.00
2022-09-17T23:06:20.711Z,100223.00
2022-09-17T23:08:48.107Z,100232.00
2022-09-17T23:11:30.943Z,100217.00
2022-09-17T23:14:02.074Z,100226.00
2022-09-17T23:16:33.334Z,100223.00
2022-09-17T23:19:00.199Z,100212.00
2022-09-17T23:21:26.943Z,100213.00
2022-09-17T23:23:53.705Z,100216.00
2022-09-17T23:26:22.675Z,100208.00
2022-09-17T23:28:50.053Z,100220.00
2022-09-17T23:31:19.733Z,100218.00
2022-09-17T23:33:47.529Z,100210.00
2022-09-17T23:36:17.141Z,100210.00
2022-09-17T23:38:45.333Z,100209.00
2022-09-17T23:41:20.748Z,100209.00
2022-09-17T23:43:52.459Z,100210.00
2022-09-17T23:46:20.477Z,100208.00
2022-09-17T23:48:47.972Z,100209.00
2022-09-17T23:51:16.454Z,100209.00
2022-09-17T23:53:43.469Z,100208.00
2022-09-17T23:56:13.150Z,100201.00
2022-09-17T23:58:40.127Z,100198.00
